Huvudsida
METAR-TAF:

METAR-TAF

Flygplatser :

Taranto, Italien

latitud: 40-31N, longitud: 017-24E, höjd: 64 m

Aktuellt väderrapport

Denna rapport gjordes för 9 timmar och 3 minuter sedan, klockan 18:50 UTC
Stilla vind
Temperatur 11°C
Fuktighet 71%
Tryck 1020 hPa
Sikt 10 km eller mer
Inga moln under 1 500 m eller inga cumulonimbus

METAR: LIBG 181850Z 00000KT CAVOK 11/06 Q1020

Tid: 04:53 (03:53 UTC)

Väderprognos

Denna rapport gjordes för 10 timmar och 53 minuter sedan, klockan 17:00 UTC
Prognos gäller från 18 kl. 18 UTC till 19 kl. 03 UTC
Vind 10 kt från nord/nordväst
Sikt 10 km eller mer
Inga moln under 1 500 m eller inga cumulonimbus

TAF: LIBG 181700Z 1818/1903 34010KT CAVOK

Aktuella väderrapporter och prognoser från 4000 flygplatser (METAR- och TAF-rapporter).

De tillgängliga stationerna syns som gula och röda prickar på kartan.

För musen över prickarna för att se namnen på stationerna.

Klicka sedan för att få väderrapporter och prognoser.

För att ändra kartan: Klicka på de gröna knapparna med ett svart kors på för att zooma in; den gröna knappen med ett streck på för att zooma ut; eller på de gröna pilarna för angränsande kartor.


METAR-TAF: